EST,Max TemperatureF,Mean TemperatureF,Min TemperatureF,Max Dew PointF,MeanDew PointF,Min DewpointF,Max Humidity, Mean Humidity, Min Humidity, Max Sea Level PressureIn, Mean Sea Level PressureIn, Min Sea Level PressureIn, Max VisibilityMiles, Mean VisibilityMiles, Min VisibilityMiles, Max Wind SpeedMPH, Mean Wind SpeedMPH, Max Gust SpeedMPH,PrecipitationIn, CloudCover, Events, WindDirDegrees
2013-1-1,50,46,42,50,42,29,100,86,55,30.15,30.07,29.97,10,7,0,9,3,,0.20,8,Rain,216
2013-1-2,49,46,42,49,42,36,100,87,67,30.22,30.09,29.95,10,8,1,13,3,21,0.26,6,Rain,46
2013-1-3,44,36,28,39,36,28,100,86,68,30.31,30.23,30.17,10,10,5,6,2,,0.00,6,Rain,60
2013-1-4,50,36,22,31,25,20,100,68,34,30.38,30.32,30.25,10,10,7,10,2,,0.00,1,,292
2013-1-5,50,36,21,36,25,20,93,66,34,30.44,30.36,30.28,10,10,10,6,1,,0.00,1,Rain,353
2013-1-6,50,42,35,40,37,32,99,80,60,30.27,30.19,30.09,10,10,10,9,1,,0.00,6,Rain,214
2013-1-7,52,39,26,34,29,25,98,75,42,30.46,30.39,30.24,10,10,10,8,1,16,0.01,0,,55
2013-1-8,57,42,26,45,37,26,99,78,52,30.49,30.44,30.39,10,10,10,6,0,,0.00,6,,58
2013-1-9,68,51,34,51,44,34,100,80,48,30.50,30.44,30.40,10,10,5,8,1,,0.00,1,,243
2013-1-10,66,54,43,50,44,37,100,71,39,30.55,30.49,30.43,10,10,7,9,2,,0.00,1,,55
2013-1-11,53,48,43,50,47,44,100,98,73,30.42,30.31,30.21,10,3,0,8,3,,0.03,8,Fog-Rain,70
2013-1-12,70,58,46,63,54,47,100,96,75,30.22,30.18,30.14,10,4,0,4,0,,0.01,5,Fog-Rain,101
2013-1-13,73,60,46,60,56,47,100,85,61,30.19,30.13,30.10,10,8,0,17,3,21,0.00,4,Fog,208
2013-1-14,66,62,59,64,60,57,100,93,87,30.19,30.15,30.12,10,9,1,6,4,,0.01,6,Rain,191
2013-1-15,62,52,43,61,48,44,100,99,93,30.25,30.17,30.10,10,4,1,15,6,20,0.11,8,Rain,41
2013-1-16,50,46,42,50,46,43,100,100,98,30.10,30.05,30.02,10,7,0,9,3,,0.12,8,Fog-Rain,25
2013-1-17,51,42,33,51,46,33,100,99,94,30.21,29.99,29.85,10,5,2,25,6,36,1.43,8,Rain-Snow,28
2013-1-18,45,36,27,34,28,21,99,77,39,30.56,30.45,30.22,10,10,10,13,4,21,0.04,0,Rain,4
2013-1-19,53,38,22,31,27,21,99,75,34,30.52,30.38,30.21,10,10,10,12,1,,0.00,0,,206
2013-1-20,63,45,27,35,31,27,99,69,29,30.20,30.12,30.05,10,10,10,10,2,,0.00,0,,264
2013-1-21,60,43,26,35,27,18,100,61,29,30.12,30.04,29.94,10,10,10,13,2,22,0.00,0,,247
2013-1-22,40,33,26,21,8,-4,64,36,16,30.30,30.19,30.03,10,10,10,15,4,25,0.00,1,,324
2013-1-23,42,30,17,21,14,5,86,54,30,30.40,30.28,30.09,10,10,10,14,2,10,0.00,0,,206
2013-1-24,42,34,24,30,15,1,91,52,24,30.53,30.27,30.01,10,10,10,20,7,26,0.00,0,,13
2013-1-25,26,22,17,25,16,5,99,75,43,30.55,30.36,30.16,10,9,2,8,1,,0.00,5,Snow,182
2013-1-26,44,32,21,33,28,20,100,92,62,30.41,30.25,30.13,10,6,0,5,0,,0.15,3,Fog,99
2013-1-27,43,33,23,31,26,22,99,74,52,30.61,30.53,30.42,10,10,5,7,2,,0.00,2,,87
2013-1-28,50,42,33,48,35,28,97,78,57,30.52,30.41,30.29,10,10,5,10,3,,0.00,7,Rain,211
2013-1-29,72,54,36,58,49,36,100,84,57,30.29,30.20,30.10,10,6,0,15,3,18,0.00,5,Fog,203
2013-1-30,74,65,53,65,61,50,96,83,59,30.10,29.81,29.50,10,9,2,33,14,52,0.47,8,Rain-Thunderstorm,190
2013-1-31,52,40,29,50,28,18,89,57,33,30.07,29.89,29.58,10,10,10,22,13,33,0.00,2,Rain,269